Time;durP1;ratioP1;P1;durP2;ratioP2;P2;SDS_P1;SDS_P2;PMS_P1;PMS_P2;Temp;Humidity;BMP_temperature;BMP_pressure;BME280_temperature;BME280_humidity;BME280_pressure;Samples;Min_cycle;Max_cycle;Signal;HPM_P1;HPM_P2
2022/11/10 00:00:39;;;;;;;52.50;49.63;;;;;;;8.60;100.00;101381.19;5075594;28;20031;-74
2022/11/10 00:03:06;;;;;;;58.10;55.45;;;;;;;8.56;100.00;101390.31;5078566;28;20072;-74
2022/11/10 00:05:32;;;;;;;51.20;49.25;;;;;;;8.51;100.00;101388.00;5073374;28;20042;-74
2022/11/10 00:08:02;;;;;;;61.67;58.67;;;;;;;8.47;100.00;101386.63;5067158;28;20402;-75
2022/11/10 00:10:28;;;;;;;63.33;60.35;;;;;;;8.39;100.00;101371.41;5076373;28;20039;-75
2022/11/10 00:12:53;;;;;;;57.60;54.50;;;;;;;8.24;100.00;101364.75;5072164;28;20040;-75
2022/11/10 00:18:04;;;;;;;50.65;48.17;;;;;;;8.16;100.00;101375.84;5062675;28;20515;-75
2022/11/10 00:20:30;;;;;;;61.05;58.60;;;;;;;8.25;100.00;101395.31;5076592;28;20021;-75
2022/11/10 00:22:55;;;;;;;64.38;61.65;;;;;;;8.24;100.00;101394.50;5077435;28;20036;-75
2022/11/10 00:25:23;;;;;;;72.38;69.10;;;;;;;8.16;100.00;101382.91;5078951;28;20143;-75
2022/11/10 00:27:48;;;;;;;65.00;62.50;;;;;;;8.24;100.00;101401.56;5041445;28;20028;-75
2022/11/10 00:30:14;;;;;;;71.78;69.10;;;;;;;8.20;100.00;101403.56;5077858;28;20506;-75
2022/11/10 00:32:39;;;;;;;60.67;58.33;;;;;;;8.09;100.00;101392.25;5078622;28;20043;-75
2022/11/10 00:35:06;;;;;;;64.40;62.08;;;;;;;8.20;100.00;101416.72;5040301;28;20434;-74
2022/11/10 00:37:32;;;;;;;70.93;67.95;;;;;;;8.14;100.00;101404.06;5074590;28;20400;-74
2022/11/10 00:39:58;;;;;;;63.85;61.40;;;;;;;8.18;100.00;101415.19;5057151;28;20484;-74
2022/11/10 00:42:23;;;;;;;79.15;75.85;;;;;;;8.27;100.00;101426.75;5044053;28;20032;-74
2022/11/10 00:44:48;;;;;;;79.90;76.70;;;;;;;8.35;100.00;101432.25;5057730;28;20025;-74
2022/11/10 00:47:14;;;;;;;71.22;68.68;;;;;;;8.39;100.00;101425.81;5077014;28;20016;-74
2022/11/10 00:49:39;;;;;;;72.65;69.75;;;;;;;8.30;100.00;101406.34;5055514;28;20407;-74
2022/11/10 00:52:04;;;;;;;66.93;64.28;;;;;;;8.38;100.00;101434.63;5042958;28;20060;-75
2022/11/10 00:54:30;;;;;;;75.18;72.25;;;;;;;8.36;100.00;101441.81;5076918;28;20055;-75
2022/11/10 00:56:55;;;;;;;70.82;68.28;;;;;;;8.38;100.00;101437.28;5076069;28;20056;-75
2022/11/10 00:59:20;;;;;;;71.88;69.20;;;;;;;8.36;100.00;101447.06;5058227;28;20120;-73
2022/11/10 01:01:46;;;;;;;64.10;61.70;;;;;;;8.24;100.00;101426.03;5060133;28;20031;-74
2022/11/10 01:04:11;;;;;;;71.07;68.55;;;;;;;8.22;100.00;101427.97;5057316;28;20043;-75
2022/11/10 01:06:37;;;;;;;66.03;63.65;;;;;;;8.31;100.00;101449.25;5075247;28;20671;-74
2022/11/10 01:09:03;;;;;;;60.72;58.53;;;;;;;8.30;100.00;101458.09;5056628;28;20032;-74
2022/11/10 01:11:28;;;;;;;72.55;69.50;;;;;;;8.30;100.00;101463.38;5076170;28;20068;-74
2022/11/10 01:13:55;;;;;;;71.20;68.65;;;;;;;8.25;100.00;101455.81;5077096;28;20216;-74
2022/11/10 01:16:30;;;;;;;68.45;65.93;;;;;;;8.29;100.00;101465.13;5075007;28;20950;-74
2022/11/10 01:18:58;;;;;;;69.30;66.75;;;;;;;8.28;100.00;101474.00;5042885;28;20040;-74
2022/11/10 01:21:24;;;;;;;61.95;59.75;;;;;;;8.28;100.00;101470.53;5075507;28;20433;-74
2022/11/10 01:23:50;;;;;;;63.05;60.28;;;;;;;8.15;100.00;101462.75;5076048;28;20020;-74
2022/11/10 01:26:16;;;;;;;59.60;56.80;;;;;;;8.24;100.00;101485.69;5074673;28;20993;-75
2022/11/10 01:28:41;;;;;;;66.30;63.42;;;;;;;8.21;100.00;101491.22;5058859;28;20434;-74
2022/11/10 01:31:10;;;;;;;60.05;57.67;;;;;;;8.19;100.00;101488.69;5057407;28;20030;-74
2022/11/10 01:33:36;;;;;;;67.63;65.20;;;;;;;8.20;100.00;101479.00;5076363;28;20048;-74
2022/11/10 01:36:02;;;;;;;70.38;67.57;;;;;;;8.19;100.00;101486.06;5072438;28;20032;-74
2022/11/10 01:38:30;;;;;;;62.22;59.50;;;;;;;8.17;100.00;101479.25;5074946;28;20041;-74
2022/11/10 01:40:56;;;;;;;67.53;65.10;;;;;;;8.05;100.00;101467.88;5059061;28;20040;-74
2022/11/10 01:43:22;;;;;;;69.70;66.97;;;;;;;8.16;100.00;101486.28;5073349;28;20472;-74
2022/11/10 01:45:48;;;;;;;69.80;66.35;;;;;;;8.12;100.00;101484.88;5076291;28;20036;-74
2022/11/10 01:48:23;;;;;;;68.85;65.75;;;;;;;8.15;100.00;101479.38;5075151;28;20036;-74
2022/11/10 01:50:48;;;;;;;60.05;57.78;;;;;;;8.10;100.00;101467.50;5077074;28;20489;-74
2022/11/10 01:53:21;;;;;;;60.30;57.97;;;;;;;8.23;100.00;101492.75;5055851;28;20028;-74
2022/11/10 01:55:47;;;;;;;61.72;59.45;;;;;;;8.22;100.00;101498.97;5059492;28;20546;-74
2022/11/10 01:58:15;;;;;;;64.32;61.67;;;;;;;8.21;100.00;101502.56;5057350;28;20040;-74
2022/11/10 02:00:42;;;;;;;62.25;59.33;;;;;;;8.21;100.00;101491.22;5071946;28;20031;-74
2022/11/10 02:03:30;;;;;;;55.90;53.85;;;;;;;8.20;100.00;101485.09;5057070;28;20044;-75
2022/11/10 02:05:57;;;;;;;61.15;58.70;;;;;;;8.20;100.00;101486.88;5075159;28;20032;-75
2022/11/10 02:08:24;;;;;;;62.15;59.58;;;;;;;8.13;100.00;101477.81;5074955;28;20516;-74
2022/11/10 02:10:49;;;;;;;73.60;70.65;;;;;;;8.22;100.00;101471.84;5071077;28;20021;-74
2022/11/10 02:13:15;;;;;;;59.17;56.92;;;;;;;8.24;100.00;101494.41;5057511;28;20385;-75
2022/11/10 02:15:41;;;;;;;59.65;57.53;;;;;;;8.29;100.00;101503.75;5058423;28;20033;-75
2022/11/10 02:18:06;;;;;;;67.05;63.90;;;;;;;8.17;100.00;101490.59;5076665;28;20055;-74
2022/11/10 02:20:33;;;;;;;79.60;76.25;;;;;;;8.24;100.00;101502.31;5059580;28;20036;-75
2022/11/10 02:22:58;;;;;;;69.22;66.55;;;;;;;8.34;100.00;101522.63;5062232;28;20909;-75
2022/11/10 02:25:29;;;;;;;78.38;75.50;;;;;;;8.19;100.00;101507.09;5062595;28;20039;-74
2022/11/10 02:27:54;;;;;;;65.50;62.92;;;;;;;8.31;100.00;101522.88;5079144;28;20024;-75
2022/11/10 02:30:19;;;;;;;57.30;54.60;;;;;;;8.28;100.00;101523.13;5076627;28;21133;-75
2022/11/10 02:32:45;;;;;;;71.18;68.13;;;;;;;8.25;100.00;101532.06;5061072;28;20119;-75
2022/11/10 02:35:10;;;;;;;60.80;58.22;;;;;;;8.25;100.00;101521.53;5062717;28;20032;-74
2022/11/10 02:37:36;;;;;;;73.43;70.25;;;;;;;8.20;100.00;101521.06;5078274;28;20028;-75
2022/11/10 02:40:01;;;;;;;56.92;54.75;;;;;;;8.11;100.00;101517.34;5058921;28;20067;-75
2022/11/10 02:42:26;;;;;;;69.65;67.07;;;;;;;8.24;100.00;101539.13;5061911;28;20028;-74
2022/11/10 02:44:52;;;;;;;61.80;59.50;;;;;;;8.22;100.00;101537.56;5077867;28;20058;-74
2022/11/10 02:47:17;;;;;;;61.33;58.65;;;;;;;8.23;100.00;101537.47;5026872;28;20028;-75
2022/11/10 02:49:43;;;;;;;66.82;64.43;;;;;;;8.15;100.00;101534.56;5078491;28;20076;-75
2022/11/10 02:52:10;;;;;;;64.65;62.30;;;;;;;8.13;100.00;101533.03;5079008;28;20376;-74
2022/11/10 02:54:35;;;;;;;57.70;55.50;;;;;;;8.23;100.00;101555.88;5062041;28;20678;-74
2022/11/10 02:57:01;;;;;;;62.75;58.60;;;;;;;8.28;100.00;101563.41;5044799;28;20060;-75
2022/11/10 02:59:27;;;;;;;66.97;64.30;;;;;;;8.31;100.00;101567.59;5078120;28;20157;-75
2022/11/10 03:01:52;;;;;;;56.45;54.35;;;;;;;8.35;100.00;101566.41;5077864;28;20127;-75
2022/11/10 03:04:17;;;;;;;67.05;64.47;;;;;;;8.36;100.00;101566.28;5059557;28;20068;-74
2022/11/10 03:06:43;;;;;;;52.05;50.00;;;;;;;8.35;100.00;101561.97;5077061;28;20020;-75
2022/11/10 03:09:08;;;;;;;58.40;56.22;;;;;;;8.36;100.00;101568.06;5079542;28;20487;-75
2022/11/10 03:11:33;;;;;;;59.80;57.35;;;;;;;8.33;100.00;101563.88;5077753;28;20539;-74
2022/11/10 03:13:59;;;;;;;60.67;57.83;;;;;;;8.35;100.00;101582.19;5059815;28;20070;-75
2022/11/10 03:16:24;;;;;;;50.10;47.70;;;;;;;8.32;100.00;101582.41;5072925;28;20055;-75
2022/11/10 03:18:49;;;;;;;53.28;51.28;;;;;;;8.30;100.00;101584.34;5045024;28;20365;-75
2022/11/10 03:21:15;;;;;;;55.20;52.65;;;;;;;8.28;100.00;101581.00;5060401;28;20496;-75
2022/11/10 03:23:40;;;;;;;59.75;56.90;;;;;;;8.23;100.00;101576.91;5059320;28;20548;-74
2022/11/10 03:26:06;;;;;;;57.70;55.33;;;;;;;8.33;100.00;101589.34;5044768;28;20613;-74
2022/11/10 03:28:32;;;;;;;54.47;51.90;;;;;;;8.30;100.00;101592.22;5077386;28;20107;-74
2022/11/10 03:30:57;;;;;;;63.20;60.78;;;;;;;8.28;100.00;101596.75;5059498;28;20051;-74
2022/11/10 03:33:23;;;;;;;53.65;51.22;;;;;;;8.28;100.00;101596.75;5058954;28;20017;-74
2022/11/10 03:35:48;;;;;;;51.90;49.92;;;;;;;8.23;100.00;101600.56;5061562;28;20046;-76
2022/11/10 03:38:13;;;;;;;48.80;46.75;;;;;;;8.22;100.00;101603.31;5045194;28;20091;-76
2022/11/10 03:40:39;;;;;;;57.92;55.40;;;;;;;8.19;100.00;101604.38;5077201;28;20100;-75
2022/11/10 03:43:04;;;;;;;49.28;47.40;;;;;;;8.17;100.00;101606.28;5079678;28;20107;-75
2022/11/10 03:45:29;;;;;;;57.13;54.88;;;;;;;8.16;100.00;101607.22;5058868;28;20115;-75
2022/11/10 03:47:55;;;;;;;91.68;87.47;;;;;;;8.17;100.00;101619.44;5077876;28;20514;-75
2022/11/10 03:50:20;;;;;;;63.83;60.78;;;;;;;8.18;100.00;101613.22;5059407;28;20514;-75
2022/11/10 03:52:46;;;;;;;60.97;58.38;;;;;;;8.19;100.00;101614.91;5076806;28;20085;-74
2022/11/10 03:55:14;;;;;;;53.83;51.88;;;;;;;8.17;100.00;101613.34;5077666;28;20124;-74
2022/11/10 03:57:40;;;;;;;58.30;56.03;;;;;;;8.09;100.00;101611.28;5077493;28;20087;-74
2022/11/10 04:00:08;;;;;;;52.53;50.53;;;;;;;8.08;100.00;101607.00;5077719;28;20047;-75
2022/11/10 04:02:34;;;;;;;59.10;56.50;;;;;;;8.21;100.00;101630.56;5059208;28;20063;-75
2022/11/10 04:10:27;;;;;;;56.05;54.00;;;;;;;8.17;100.00;101643.09;5059994;28;20098;-75
2022/11/10 04:15:43;;;;;;;57.47;55.08;;;;;;;8.27;100.00;101653.75;5062590;28;20503;-75
2022/11/10 04:18:24;;;;;;;56.63;54.28;;;;;;;8.17;100.00;101643.09;5078022;28;20412;-75
2022/11/10 04:20:55;;;;;;;57.00;54.90;;;;;;;8.29;100.00;101672.06;5073134;28;20365;-75
2022/11/10 04:23:25;;;;;;;52.80;50.42;;;;;;;8.26;100.00;101675.78;5074316;28;20028;-75
2022/11/10 04:28:44;;;;;;;47.55;45.75;;;;;;;8.27;100.00;101679.22;5077993;28;20439;-75
2022/11/10 04:31:10;;;;;;;47.60;44.50;;;;;;;8.27;100.00;101684.50;5073307;28;20036;-75
2022/11/10 04:33:37;;;;;;;57.45;54.88;;;;;;;8.27;100.00;101687.13;5074621;28;20740;-75
2022/11/10 04:36:04;;;;;;;53.42;51.38;;;;;;;8.28;100.00;101675.66;5075954;28;20093;-75
2022/11/10 04:38:29;;;;;;;64.38;61.63;;;;;;;8.27;100.00;101689.75;5059171;28;20141;-75
2022/11/10 04:40:54;;;;;;;55.35;53.10;;;;;;;8.28;100.00;101679.13;5075288;28;20512;-75
2022/11/10 04:43:20;;;;;;;63.20;60.78;;;;;;;8.30;100.00;101684.28;5058634;28;20021;-75
2022/11/10 04:45:45;;;;;;;56.58;54.50;;;;;;;8.27;100.00;101673.97;5078347;28;20793;-75
2022/11/10 04:48:11;;;;;;;57.47;55.00;;;;;;;8.33;100.00;101676.97;5059017;28;20060;-75
2022/11/10 04:50:36;;;;;;;57.63;55.50;;;;;;;8.36;100.00;101682.03;5070162;28;20055;-75
2022/11/10 04:53:01;;;;;;;59.35;56.85;;;;;;;8.29;100.00;101672.91;5077860;28;20108;-75
2022/11/10 04:55:27;;;;;;;65.10;62.65;;;;;;;8.31;100.00;101664.91;5038971;28;20038;-75
2022/11/10 04:57:52;;;;;;;57.33;54.38;;;;;;;8.44;100.00;101682.28;5059166;28;20099;-75
2022/11/10 05:00:18;;;;;;;62.53;60.00;;;;;;;8.44;100.00;101670.94;5076869;28;20102;-75
2022/11/10 05:02:43;;;;;;;60.03;56.85;;;;;;;8.37;100.00;101656.56;5077218;28;20118;-75
2022/11/10 05:05:09;;;;;;;51.47;49.15;;;;;;;8.40;100.00;101658.94;5074471;28;20033;-75
2022/11/10 05:07:34;;;;;;;55.40;51.65;;;;;;;8.40;100.00;101674.72;5057110;28;20055;-76
2022/11/10 05:09:59;;;;;;;62.88;59.70;;;;;;;8.37;100.00;101674.97;5055986;28;20064;-75
2022/11/10 05:12:25;;;;;;;58.30;55.65;;;;;;;8.42;100.00;101684.19;5043251;28;20491;-75
2022/11/10 05:14:50;;;;;;;53.47;51.42;;;;;;;8.39;100.00;101681.78;5056742;28;20464;-75
2022/11/10 05:17:16;;;;;;;54.03;51.95;;;;;;;8.41;100.00;101686.97;5056429;28;20416;-75
2022/11/10 05:19:41;;;;;;;54.75;52.38;;;;;;;8.40;100.00;101680.84;5075847;28;20028;-75
2022/11/10 05:22:06;;;;;;;53.38;51.22;;;;;;;8.35;100.00;101667.19;5074244;28;20556;-75
2022/11/10 05:24:32;;;;;;;49.35;47.22;;;;;;;8.51;100.00;101695.81;5043038;28;20032;-75
2022/11/10 05:26:58;;;;;;;67.90;65.18;;;;;;;8.52;100.00;101697.53;5056621;28;20067;-75
2022/11/10 05:29:23;;;;;;;55.50;52.92;;;;;;;8.52;100.00;101692.25;5076426;28;20024;-74
2022/11/10 05:31:49;;;;;;;74.15;70.68;;;;;;;8.54;100.00;101700.88;5055260;28;20029;-75
2022/11/10 05:34:15;;;;;;;55.85;52.15;;;;;;;8.44;100.00;101684.94;5039928;28;20028;-75
2022/11/10 05:36:40;;;;;;;66.05;63.03;;;;;;;8.48;100.00;101688.19;5051844;28;20055;-76
2022/11/10 05:39:05;;;;;;;60.10;57.55;;;;;;;8.56;100.00;101698.97;5040699;28;20028;-75
2022/11/10 05:41:31;;;;;;;50.75;48.83;;;;;;;8.57;100.00;101703.25;5072777;28;20024;-75
2022/11/10 05:43:56;;;;;;;50.92;47.97;;;;;;;8.59;100.00;101711.88;5058663;28;20653;-75
2022/11/10 05:46:21;;;;;;;54.45;52.05;;;;;;;8.58;100.00;101720.75;5073374;28;20463;-75
2022/11/10 05:48:47;;;;;;;53.97;51.40;;;;;;;8.61;100.00;101720.50;5042162;28;20453;-75
2022/11/10 05:51:12;;;;;;;54.80;52.30;;;;;;;8.64;100.00;101717.66;5039074;28;20380;-75
2022/11/10 05:53:38;;;;;;;48.72;46.40;;;;;;;8.67;100.00;101718.34;5054308;28;20028;-75
2022/11/10 05:56:03;;;;;;;51.95;49.47;;;;;;;8.68;100.00;101722.66;5057998;28;20032;-75
2022/11/10 05:58:29;;;;;;;46.58;44.58;;;;;;;8.70;100.00;101724.22;5078362;28;20610;-75
2022/11/10 06:00:54;;;;;;;46.13;43.13;;;;;;;8.61;100.00;101712.59;5077788;28;20086;-75
2022/11/10 06:03:20;;;;;;;51.20;48.42;;;;;;;8.74;100.00;101735.38;5058661;28;20039;-75
2022/11/10 06:05:45;;;;;;;42.20;40.25;;;;;;;8.74;100.00;101735.38;5077026;28;20035;-75
2022/11/10 06:08:11;;;;;;;51.97;49.70;;;;;;;8.74;100.00;101738.00;5077746;28;20408;-76
2022/11/10 06:10:37;;;;;;;46.00;43.83;;;;;;;8.75;100.00;101740.50;5077784;28;20036;-76
2022/11/10 06:13:03;;;;;;;39.38;36.95;;;;;;;8.74;100.00;101745.91;5065744;28;20492;-76
2022/11/10 06:15:29;;;;;;;38.28;36.58;;;;;;;8.68;100.00;101746.34;5076892;28;20130;-75
2022/11/10 06:17:55;;;;;;;38.80;36.78;;;;;;;8.75;100.00;101763.34;5074885;28;20103;-75
2022/11/10 06:20:21;;;;;;;46.72;44.75;;;;;;;8.59;100.00;101743.44;5074603;28;20047;-75
2022/11/10 06:23:08;;;;;;;37.42;35.03;;;;;;;8.69;100.00;101766.44;5054904;28;20024;-75
2022/11/10 06:25:35;;;;;;;33.40;31.88;;;;;;;8.68;100.00;101759.50;5075046;28;20369;-75
2022/11/10 06:28:01;;;;;;;34.05;32.63;;;;;;;8.56;100.00;101756.84;5076942;28;20039;-75
2022/11/10 06:30:28;;;;;;;39.28;37.53;;;;;;;8.61;100.00;101762.59;5077677;28;20523;-75
2022/11/10 06:32:53;;;;;;;51.95;49.08;;;;;;;8.68;100.00;101767.41;5075726;28;20034;-75
2022/11/10 06:35:20;;;;;;;47.05;44.88;;;;;;;8.71;100.00;101777.69;5068072;28;20059;-75
2022/11/10 06:37:45;;;;;;;38.25;36.00;;;;;;;8.63;100.00;101770.38;5042730;28;20035;-76
2022/11/10 06:40:12;;;;;;;50.33;47.80;;;;;;;8.78;100.00;101786.81;5056916;28;20466;-75
2022/11/10 06:42:38;;;;;;;35.70;34.30;;;;;;;8.83;100.00;101793.41;5077942;28;20042;-75
2022/11/10 06:45:04;;;;;;;45.40;43.65;;;;;;;8.88;100.00;101794.84;5060009;28;20032;-75
2022/11/10 06:47:29;;;;;;;45.85;43.47;;;;;;;8.82;100.00;101785.66;5056870;28;20032;-75
2022/11/10 06:49:54;;;;;;;36.83;34.92;;;;;;;8.96;100.00;101801.22;5054369;28;20043;-75
2022/11/10 06:52:20;;;;;;;37.60;34.63;;;;;;;9.00;100.00;101812.38;5069237;28;20365;-75
2022/11/10 06:54:45;;;;;;;40.83;38.83;;;;;;;9.03;100.00;101820.84;5076879;28;20032;-75
2022/11/10 06:57:11;;;;;;;40.00;37.92;;;;;;;9.06;100.00;101828.53;5079819;28;20439;-76
2022/11/10 06:59:36;;;;;;;44.33;42.35;;;;;;;9.09;100.00;101839.81;5076542;28;20038;-76
2022/11/10 07:02:02;;;;;;;37.38;35.53;;;;;;;8.95;100.00;101812.72;5072750;28;20047;-76
2022/11/10 07:04:28;;;;;;;33.70;32.05;;;;;;;9.15;100.00;101849.88;5056431;28;20032;-76
2022/11/10 07:06:53;;;;;;;36.63;35.17;;;;;;;9.17;100.00;101864.59;5078547;28;20032;-76
2022/11/10 07:09:20;;;;;;;39.35;36.88;;;;;;;9.18;100.00;101854.91;5043993;28;20082;-76
2022/11/10 07:11:45;;;;;;;30.08;28.70;;;;;;;9.11;100.00;101843.16;5073335;28;20070;-76
2022/11/10 07:14:11;;;;;;;31.38;29.08;;;;;;;9.23;100.00;101863.28;5076279;28;20499;-76
2022/11/10 07:16:36;;;;;;;35.00;33.30;;;;;;;9.22;100.00;101861.63;5076649;28;20111;-76
2022/11/10 07:19:01;;;;;;;35.45;33.30;;;;;;;9.23;100.00;101864.16;5042430;28;20458;-76
2022/11/10 07:21:27;;;;;;;33.75;31.65;;;;;;;9.13;100.00;101833.34;5077450;28;20043;-76
2022/11/10 07:23:52;;;;;;;36.40;34.92;;;;;;;9.24;100.00;101844.75;5057172;28;20035;-76
2022/11/10 07:26:17;;;;;;;34.92;33.05;;;;;;;9.26;100.00;101842.81;5075889;28;20027;-75
2022/11/10 07:28:43;;;;;;;31.65;29.02;;;;;;;9.29;100.00;101836.47;5057267;28;20444;-77
2022/11/10 07:31:08;;;;;;;31.92;30.52;;;;;;;9.31;100.00;101842.47;5077723;28;20475;-77
2022/11/10 07:33:34;;;;;;;30.65;28.73;;;;;;;9.31;100.00;101839.00;5076181;28;20027;-76
2022/11/10 07:36:02;;;;;;;34.72;32.38;;;;;;;9.31;100.00;101839.84;5078832;28;20033;-75
2022/11/10 07:38:28;;;;;;;34.08;32.28;;;;;;;9.27;100.00;101831.31;5056853;28;20093;-75
2022/11/10 07:40:54;;;;;;;29.88;28.50;;;;;;;9.22;100.00;101833.47;5075094;28;20033;-76
2022/11/10 07:43:21;;;;;;;32.03;30.15;;;;;;;9.35;100.00;101853.63;5058055;28;20119;-76
2022/11/10 07:45:48;;;;;;;24.27;22.77;;;;;;;9.32;100.00;101853.84;5057214;28;20580;-77
2022/11/10 07:48:14;;;;;;;27.70;25.45;;;;;;;9.30;100.00;101858.38;5059802;28;20020;-76
2022/11/10 07:50:39;;;;;;;29.75;28.35;;;;;;;9.23;100.00;101852.75;5058103;28;20584;-75
2022/11/10 07:53:06;;;;;;;28.75;27.50;;;;;;;9.14;100.00;101858.72;5057000;28;20024;-76
2022/11/10 07:55:32;;;;;;;25.08;24.08;;;;;;;9.20;100.00;101879.34;5075647;28;20104;-76
2022/11/10 07:57:58;;;;;;;29.83;27.83;;;;;;;9.20;100.00;101874.91;5053133;28;20806;-75
2022/11/10 08:00:24;;;;;;;27.83;26.48;;;;;;;9.19;100.00;101870.59;5055136;28;20044;-76
2022/11/10 08:02:50;;;;;;;29.90;28.23;;;;;;;9.03;100.00;101868.25;5055934;28;20336;-76
2022/11/10 08:05:15;;;;;;;28.77;27.67;;;;;;;9.15;100.00;101881.50;5053715;28;20101;-75
2022/11/10 08:07:41;;;;;;;25.02;23.90;;;;;;;9.34;100.00;101892.31;5036060;28;20037;-76
2022/11/10 08:10:07;;;;;;;29.98;28.17;;;;;;;9.42;100.00;101882.00;5056102;28;20423;-76
2022/11/10 08:12:33;;;;;;;32.35;30.92;;;;;;;9.48;100.00;101878.91;5055314;28;20036;-77
2022/11/10 08:14:58;;;;;;;28.42;27.10;;;;;;;9.40;100.00;101881.28;5054284;28;20396;-76
2022/11/10 08:17:23;;;;;;;20.92;19.23;;;;;;;9.38;100.00;101883.19;5053398;28;20057;-76
2022/11/10 08:19:49;;;;;;;22.75;21.55;;;;;;;9.35;100.00;101893.97;5037710;28;20619;-77
2022/11/10 08:22:14;;;;;;;23.13;21.65;;;;;;;9.41;100.00;101888.25;5054356;28;20039;-76
2022/11/10 08:24:39;;;;;;;21.48;20.23;;;;;;;9.56;100.00;101891.50;5053158;28;20059;-75
2022/11/10 08:27:05;;;;;;;23.25;21.95;;;;;;;9.72;100.00;101901.69;5053267;28;20367;-76
2022/11/10 08:29:30;;;;;;;22.08;21.00;;;;;;;9.77;100.00;101896.91;5054111;28;20020;-76
2022/11/10 08:31:56;;;;;;;22.17;20.80;;;;;;;9.95;100.00;101899.06;5052035;28;20120;-75
2022/11/10 08:34:21;;;;;;;22.73;18.60;;;;;;;10.03;100.00;101905.41;5055034;28;20368;-75
2022/11/10 08:36:47;;;;;;;19.42;17.85;;;;;;;10.14;100.00;101883.47;5053446;28;20581;-75
2022/11/10 08:39:13;;;;;;;13.48;12.52;;;;;;;10.46;100.00;101896.75;5056212;28;20021;-76
2022/11/10 08:41:38;;;;;;;20.38;18.85;;;;;;;10.72;100.00;101911.47;5052955;28;20037;-76
2022/11/10 08:44:04;;;;;;;11.82;10.93;;;;;;;11.21;100.00;101907.41;5053569;28;20024;-76
2022/11/10 08:46:29;;;;;;;9.13;8.27;;;;;;;11.42;100.00;101904.78;5055371;28;20041;-77
2022/11/10 08:48:54;;;;;;;9.88;7.30;;;;;;;11.02;100.00;101902.84;5052253;28;20034;-76
2022/11/10 08:51:21;;;;;;;6.13;5.45;;;;;;;11.00;100.00;101899.50;5053654;28;20065;-75
2022/11/10 08:53:46;;;;;;;10.93;6.60;;;;;;;11.23;100.00;101894.91;5052492;28;20123;-76
2022/11/10 08:56:11;;;;;;;7.75;4.82;;;;;;;11.31;100.00;101924.19;5052280;28;20123;-76
2022/11/10 08:58:37;;;;;;;5.50;5.03;;;;;;;11.76;100.00;101934.50;5055458;28;20056;-76
2022/11/10 09:01:07;;;;;;;7.00;4.40;;;;;;;12.01;100.00;101927.13;5052960;28;20056;-76
2022/11/10 09:03:32;;;;;;;4.00;2.83;;;;;;;12.00;100.00;101923.63;5055087;28;20032;-76
2022/11/10 09:05:58;;;;;;;5.85;2.70;;;;;;;11.94;100.00;101925.00;5053509;28;20400;-76
2022/11/10 09:08:23;;;;;;;8.20;3.00;;;;;;;12.69;100.00;101938.72;5054673;28;20075;-76
2022/11/10 09:10:50;;;;;;;10.25;3.33;;;;;;;13.41;100.00;101939.31;5054640;28;20031;-76
2022/11/10 09:13:16;;;;;;;8.75;2.28;;;;;;;13.78;99.24;101938.53;5053198;28;20425;-76
2022/11/10 09:15:42;;;;;;;5.97;2.10;;;;;;;14.38;94.94;101931.03;5053626;28;20021;-76
2022/11/10 09:18:10;;;;;;;10.57;3.42;;;;;;;15.31;91.94;101940.56;5054499;28;20559;-77
2022/11/10 09:20:37;;;;;;;3.55;1.63;;;;;;;15.13;88.47;101936.09;5055095;28;20107;-76
2022/11/10 09:23:11;;;;;;;7.45;2.13;;;;;;;15.67;86.25;101937.84;5053659;28;20374;-76
2022/11/10 09:25:37;;;;;;;8.43;2.00;;;;;;;15.73;85.73;101934.59;5055768;28;20025;-77
2022/11/10 09:28:03;;;;;;;8.88;2.33;;;;;;;16.16;85.03;101948.78;5054191;28;20025;-76
2022/11/10 09:30:28;;;;;;;8.18;1.80;;;;;;;16.23;82.74;101934.66;5053337;28;20041;-76
2022/11/10 09:32:55;;;;;;;4.38;1.50;;;;;;;15.66;86.67;101944.13;5052961;28;20028;-76
2022/11/10 09:35:21;;;;;;;3.78;1.48;;;;;;;14.66;87.30;101949.63;5052896;28;20487;-77
2022/11/10 09:37:46;;;;;;;7.97;1.88;;;;;;;14.15;91.47;101948.31;5054236;28;20396;-77
2022/11/10 09:40:19;;;;;;;8.45;2.20;;;;;;;13.89;93.40;101943.69;5052062;28;20032;-76
2022/11/10 09:42:46;;;;;;;8.02;2.10;;;;;;;13.96;93.15;101939.47;5054603;28;20025;-76
2022/11/10 09:45:31;;;;;;;4.78;1.63;;;;;;;13.65;95.21;101957.41;5052672;28;20074;-76
2022/11/10 09:48:06;;;;;;;3.80;1.98;;;;;;;13.86;95.14;101965.19;5050336;28;20056;-76
2022/11/10 09:50:48;;;;;;;10.43;2.17;;;;;;;13.73;98.70;101964.66;5051284;28;20119;-76
2022/11/10 09:53:24;;;;;;;7.32;2.80;;;;;;;13.95;96.17;101959.00;5053885;28;20067;-76
2022/11/10 09:55:56;;;;;;;11.02;2.30;;;;;;;14.70;94.90;101956.31;5054179;28;20060;-76
2022/11/10 09:58:28;;;;;;;8.05;7.35;;;;;;;14.51;89.88;101951.09;5062842;28;20067;-76
2022/11/10 10:01:23;;;;;;;8.25;1.92;;;;;;;14.06;94.03;101965.97;5074097;28;20580;-76
2022/11/10 10:04:01;;;;;;;6.60;2.10;;;;;;;13.55;95.57;101952.16;5054699;28;20067;-76
2022/11/10 10:06:27;;;;;;;7.88;2.72;;;;;;;13.89;96.54;101977.31;5069434;28;20031;-76
2022/11/10 10:09:19;;;;;;;9.43;2.47;;;;;;;13.62;95.93;101988.72;5071910;28;20041;-76
2022/11/10 10:12:19;;;;;;;5.95;2.08;;;;;;;13.23;98.90;101989.53;5074534;28;20020;-76
2022/11/10 10:14:59;;;;;;;7.43;2.70;;;;;;;13.31;100.00;101997.66;5072585;28;20497;-76
2022/11/10 10:17:38;;;;;;;10.65;3.20;;;;;;;13.49;99.15;101984.53;5072921;28;20108;-76
2022/11/10 10:20:07;;;;;;;9.48;2.85;;;;;;;13.37;99.53;102005.06;5073353;28;20082;-76
2022/11/10 10:22:58;;;;;;;8.48;3.63;;;;;;;13.18;100.00;102011.16;5074251;28;20021;-76
2022/11/10 10:25:26;;;;;;;4.68;3.80;;;;;;;13.40;100.00;102016.38;5056295;28;20118;-76
2022/11/10 10:28:18;;;;;;;8.00;4.97;;;;;;;12.81;100.00;102015.44;5073102;28;20029;-76
2022/11/10 10:30:44;;;;;;;6.38;4.22;;;;;;;13.34;100.00;102023.88;5074280;28;20488;-76
2022/11/10 10:33:13;;;;;;;7.10;4.40;;;;;;;12.55;100.00;102022.06;5073945;28;20024;-75
2022/11/10 10:35:39;;;;;;;10.35;5.90;;;;;;;12.49;100.00;102006.69;5055369;28;20059;-76
2022/11/10 10:38:14;;;;;;;14.73;7.90;;;;;;;12.53;100.00;102039.06;5074305;28;20028;-76
2022/11/10 10:40:49;;;;;;;8.93;7.80;;;;;;;12.35;100.00;102031.72;5076073;28;20365;-76
2022/11/10 10:43:14;;;;;;;18.90;17.35;;;;;;;12.49;100.00;102035.81;5058859;28;20024;-76
2022/11/10 10:45:41;;;;;;;17.67;16.73;;;;;;;12.46;100.00;102038.75;5059004;28;20024;-76
2022/11/10 10:48:28;;;;;;;9.60;8.73;;;;;;;12.45;100.00;102026.47;5077218;28;20065;-76
2022/11/10 10:50:53;;;;;;;27.65;26.10;;;;;;;12.10;100.00;102016.28;5061327;28;20032;-75
2022/11/10 10:53:23;;;;;;;19.88;18.30;;;;;;;12.38;100.00;102012.09;5079050;28;20040;-75
2022/11/10 10:55:58;;;;;;;15.65;14.50;;;;;;;12.70;100.00;101996.03;5076815;28;20047;-75
2022/11/10 10:58:30;;;;;;;11.63;10.70;;;;;;;13.13;100.00;102015.19;5078069;28;20073;-76
2022/11/10 11:01:18;;;;;;;25.23;23.42;;;;;;;12.90;100.00;102014.63;5078589;28;20479;-76
2022/11/10 11:03:46;;;;;;;11.13;10.20;;;;;;;12.79;100.00;102025.34;5059145;28;20063;-76
2022/11/10 11:06:15;;;;;;;12.40;11.25;;;;;;;12.89;100.00;102018.22;5075326;28;20077;-76
2022/11/10 11:09:06;;;;;;;7.13;6.28;;;;;;;12.75;100.00;102027.41;5077793;28;20476;-75
2022/11/10 11:11:37;;;;;;;8.75;7.90;;;;;;;12.59;100.00;102029.75;5076259;28;20056;-75
2022/11/10 11:14:12;;;;;;;15.02;14.18;;;;;;;12.90;100.00;102046.41;5076761;28;20020;-75
2022/11/10 11:16:46;;;;;;;8.48;7.80;;;;;;;12.80;100.00;102038.44;5075740;28;20078;-75
2022/11/10 11:19:12;;;;;;;42.25;39.90;;;;;;;12.66;100.00;102060.00;5077091;28;20105;-75
2022/11/10 11:21:50;;;;;;;13.40;9.38;;;;;;;12.64;100.00;102054.84;5058380;28;20499;-75
2022/11/10 11:24:36;;;;;;;9.63;9.02;;;;;;;12.90;100.00;102051.72;5059540;28;20035;-75
2022/11/10 11:27:17;;;;;;;15.95;14.73;;;;;;;12.87;100.00;102054.63;5077705;28;20031;-75